sensor_id;sensor_type;location;lat;lon;timestamp;pressure;altitude;pressure_sealevel;temperature;humidity
33265;BME280;31404;53.974;-1.086;2023-03-18T00:00:40;100257.23;;;11.32;89.32
33265;BME280;31404;53.974;-1.086;2023-03-18T00:05:40;100260.29;;;10.54;92.90
33265;BME280;31404;53.974;-1.086;2023-03-18T00:10:40;100256.56;;;10.92;91.15
33265;BME280;31404;53.974;-1.086;2023-03-18T00:15:40;100258.98;;;10.52;90.44
33265;BME280;31404;53.974;-1.086;2023-03-18T00:20:40;100264.54;;;9.16;100.00
33265;BME280;31404;53.974;-1.086;2023-03-18T00:25:41;100262.01;;;10.45;95.99
33265;BME280;31404;53.974;-1.086;2023-03-18T00:30:40;100268.05;;;9.74;97.34
33265;BME280;31404;53.974;-1.086;2023-03-18T00:35:41;100264.30;;;10.09;97.57
33265;BME280;31404;53.974;-1.086;2023-03-18T00:40:40;100257.09;;;10.63;93.27
33265;BME280;31404;53.974;-1.086;2023-03-18T00:45:40;100262.30;;;9.35;100.00
33265;BME280;31404;53.974;-1.086;2023-03-18T00:50:40;100262.28;;;9.88;99.18
33265;BME280;31404;53.974;-1.086;2023-03-18T00:55:34;100263.50;;;9.76;99.19
33265;BME280;31404;53.974;-1.086;2023-03-18T01:00:39;100263.68;;;10.21;98.31
33265;BME280;31404;53.974;-1.086;2023-03-18T01:05:40;100260.89;;;10.79;94.53
33265;BME280;31404;53.974;-1.086;2023-03-18T01:10:40;100269.61;;;9.71;100.00
33265;BME280;31404;53.974;-1.086;2023-03-18T01:15:40;100268.47;;;10.14;98.77
33265;BME280;31404;53.974;-1.086;2023-03-18T01:20:39;100263.30;;;10.56;95.32
33265;BME280;31404;53.974;-1.086;2023-03-18T01:25:39;100263.33;;;10.75;93.75
33265;BME280;31404;53.974;-1.086;2023-03-18T01:30:40;100260.03;;;11.88;88.71
33265;BME280;31404;53.974;-1.086;2023-03-18T01:35:40;100262.04;;;10.46;97.29
33265;BME280;31404;53.974;-1.086;2023-03-18T01:40:37;100259.24;;;11.67;89.04
33265;BME280;31404;53.974;-1.086;2023-03-18T01:45:43;100259.57;;;10.81;91.38
33265;BME280;31404;53.974;-1.086;2023-03-18T01:50:41;100263.60;;;10.19;94.94
33265;BME280;31404;53.974;-1.086;2023-03-18T01:55:41;100252.80;;;12.29;85.53
33265;BME280;31404;53.974;-1.086;2023-03-18T02:05:41;100248.62;;;11.28;89.85
33265;BME280;31404;53.974;-1.086;2023-03-18T02:10:40;100250.11;;;11.69;85.33
33265;BME280;31404;53.974;-1.086;2023-03-18T02:30:42;100247.92;;;13.13;78.79
33265;BME280;31404;53.974;-1.086;2023-03-18T02:35:41;100249.76;;;12.98;78.57
33265;BME280;31404;53.974;-1.086;2023-03-18T02:40:41;100245.84;;;11.87;82.90
33265;BME280;31404;53.974;-1.086;2023-03-18T02:50:39;100251.48;;;12.72;80.73
33265;BME280;31404;53.974;-1.086;2023-03-18T02:55:39;100246.19;;;12.91;79.70
33265;BME280;31404;53.974;-1.086;2023-03-18T03:00:40;100251.33;;;10.96;87.13
33265;BME280;31404;53.974;-1.086;2023-03-18T03:05:39;100246.22;;;11.91;85.51
33265;BME280;31404;53.974;-1.086;2023-03-18T03:10:40;100243.95;;;12.43;82.60
33265;BME280;31404;53.974;-1.086;2023-03-18T03:15:40;100250.45;;;11.83;85.05
33265;BME280;31404;53.974;-1.086;2023-03-18T03:20:40;100248.79;;;10.62;90.50
33265;BME280;31404;53.974;-1.086;2023-03-18T03:25:38;100249.90;;;10.94;87.05
33265;BME280;31404;53.974;-1.086;2023-03-18T03:30:39;100251.84;;;11.38;84.91
33265;BME280;31404;53.974;-1.086;2023-03-18T03:35:38;100247.87;;;12.03;83.98
33265;BME280;31404;53.974;-1.086;2023-03-18T03:40:40;100253.48;;;11.74;84.29
33265;BME280;31404;53.974;-1.086;2023-03-18T03:45:40;100259.48;;;11.38;88.00
33265;BME280;31404;53.974;-1.086;2023-03-18T03:50:39;100256.55;;;12.10;84.65
33265;BME280;31404;53.974;-1.086;2023-03-18T03:55:35;100263.07;;;10.73;89.47
33265;BME280;31404;53.974;-1.086;2023-03-18T04:00:40;100261.96;;;11.86;86.78
33265;BME280;31404;53.974;-1.086;2023-03-18T04:05:40;100266.20;;;11.24;86.93
33265;BME280;31404;53.974;-1.086;2023-03-18T04:10:35;100261.35;;;12.59;82.31
33265;BME280;31404;53.974;-1.086;2023-03-18T04:15:40;100258.26;;;12.07;84.19
33265;BME280;31404;53.974;-1.086;2023-03-18T04:20:35;100259.32;;;12.97;80.38
33265;BME280;31404;53.974;-1.086;2023-03-18T04:25:40;100260.01;;;12.46;82.62
33265;BME280;31404;53.974;-1.086;2023-03-18T04:30:40;100259.78;;;12.05;82.67
33265;BME280;31404;53.974;-1.086;2023-03-18T04:35:39;100262.74;;;11.75;85.99
33265;BME280;31404;53.974;-1.086;2023-03-18T04:40:39;100255.10;;;12.35;84.67
33265;BME280;31404;53.974;-1.086;2023-03-18T04:45:41;100257.55;;;12.28;84.99
33265;BME280;31404;53.974;-1.086;2023-03-18T04:50:40;100267.28;;;11.03;90.91
33265;BME280;31404;53.974;-1.086;2023-03-18T04:55:40;100275.06;;;10.54;91.56
33265;BME280;31404;53.974;-1.086;2023-03-18T05:00:39;100281.90;;;10.05;97.13
33265;BME280;31404;53.974;-1.086;2023-03-18T05:05:34;100287.38;;;9.27;98.95
33265;BME280;31404;53.974;-1.086;2023-03-18T05:10:34;100280.97;;;10.38;95.51
33265;BME280;31404;53.974;-1.086;2023-03-18T05:15:39;100279.93;;;7.99;100.00
33265;BME280;31404;53.974;-1.086;2023-03-18T05:20:34;100281.97;;;10.89;93.35
33265;BME280;31404;53.974;-1.086;2023-03-18T05:25:29;100284.27;;;12.25;85.63
33265;BME280;31404;53.974;-1.086;2023-03-18T05:30:40;100295.11;;;12.58;83.20
33265;BME280;31404;53.974;-1.086;2023-03-18T05:35:39;100296.01;;;11.79;86.81
33265;BME280;31404;53.974;-1.086;2023-03-18T05:40:35;100303.06;;;10.59;90.45
33265;BME280;31404;53.974;-1.086;2023-03-18T05:45:40;100301.54;;;11.07;90.84
33265;BME280;31404;53.974;-1.086;2023-03-18T05:50:41;100300.06;;;11.31;89.23
33265;BME280;31404;53.974;-1.086;2023-03-18T05:55:40;100311.77;;;9.90;97.58
33265;BME280;31404;53.974;-1.086;2023-03-18T06:00:40;100310.05;;;9.81;98.23
33265;BME280;31404;53.974;-1.086;2023-03-18T06:05:40;100315.55;;;9.32;100.00
33265;BME280;31404;53.974;-1.086;2023-03-18T06:10:40;100315.63;;;11.09;93.53
33265;BME280;31404;53.974;-1.086;2023-03-18T06:15:41;100315.23;;;10.67;93.67
33265;BME280;31404;53.974;-1.086;2023-03-18T06:20:40;100315.93;;;12.03;88.11
33265;BME280;31404;53.974;-1.086;2023-03-18T06:25:36;100328.23;;;9.70;97.11
33265;BME280;31404;53.974;-1.086;2023-03-18T06:30:40;100331.32;;;10.61;94.46
33265;BME280;31404;53.974;-1.086;2023-03-18T06:35:34;100324.22;;;11.01;93.42
33265;BME280;31404;53.974;-1.086;2023-03-18T06:40:40;100327.23;;;10.94;92.48
33265;BME280;31404;53.974;-1.086;2023-03-18T06:45:34;100328.57;;;11.30;91.47
33265;BME280;31404;53.974;-1.086;2023-03-18T06:50:40;100335.61;;;11.24;92.21
33265;BME280;31404;53.974;-1.086;2023-03-18T06:55:40;100343.37;;;12.08;87.83
33265;BME280;31404;53.974;-1.086;2023-03-18T07:00:35;100346.59;;;11.87;88.76
33265;BME280;31404;53.974;-1.086;2023-03-18T07:05:34;100359.16;;;10.37;94.47
33265;BME280;31404;53.974;-1.086;2023-03-18T07:10:40;100359.20;;;10.09;100.00
33265;BME280;31404;53.974;-1.086;2023-03-18T07:15:40;100364.46;;;9.75;100.00
33265;BME280;31404;53.974;-1.086;2023-03-18T07:20:35;100370.69;;;9.27;100.00
33265;BME280;31404;53.974;-1.086;2023-03-18T07:25:35;100364.96;;;9.24;100.00
33265;BME280;31404;53.974;-1.086;2023-03-18T07:35:35;100373.56;;;9.15;100.00
33265;BME280;31404;53.974;-1.086;2023-03-18T07:40:40;100383.87;;;7.55;100.00
33265;BME280;31404;53.974;-1.086;2023-03-18T07:45:39;100388.17;;;7.94;100.00
33265;BME280;31404;53.974;-1.086;2023-03-18T07:50:40;100384.37;;;8.99;100.00
33265;BME280;31404;53.974;-1.086;2023-03-18T07:55:40;100391.67;;;8.86;100.00
33265;BME280;31404;53.974;-1.086;2023-03-18T08:00:34;100388.71;;;10.04;100.00
33265;BME280;31404;53.974;-1.086;2023-03-18T08:05:39;100392.40;;;9.80;100.00
33265;BME280;31404;53.974;-1.086;2023-03-18T08:10:39;100397.57;;;9.06;100.00
33265;BME280;31404;53.974;-1.086;2023-03-18T08:15:40;100398.37;;;9.22;100.00
33265;BME280;31404;53.974;-1.086;2023-03-18T08:20:35;100400.57;;;9.11;100.00
33265;BME280;31404;53.974;-1.086;2023-03-18T08:25:40;100403.25;;;9.40;100.00
33265;BME280;31404;53.974;-1.086;2023-03-18T08:30:38;100409.20;;;9.88;100.00
33265;BME280;31404;53.974;-1.086;2023-03-18T08:35:39;100404.91;;;9.31;100.00
33265;BME280;31404;53.974;-1.086;2023-03-18T08:40:39;100407.75;;;9.83;100.00
33265;BME280;31404;53.974;-1.086;2023-03-18T08:45:35;100415.80;;;8.90;100.00
33265;BME280;31404;53.974;-1.086;2023-03-18T08:50:39;100416.70;;;9.94;100.00
33265;BME280;31404;53.974;-1.086;2023-03-18T08:55:35;100420.45;;;9.70;100.00
33265;BME280;31404;53.974;-1.086;2023-03-18T09:00:40;100425.78;;;8.65;100.00
33265;BME280;31404;53.974;-1.086;2023-03-18T09:05:38;100429.15;;;8.54;100.00
33265;BME280;31404;53.974;-1.086;2023-03-18T09:10:38;100424.12;;;9.70;100.00
33265;BME280;31404;53.974;-1.086;2023-03-18T09:15:39;100423.40;;;10.87;100.00
33265;BME280;31404;53.974;-1.086;2023-03-18T09:20:40;100424.64;;;10.08;100.00
33265;BME280;31404;53.974;-1.086;2023-03-18T09:25:34;100428.56;;;10.68;99.17
33265;BME280;31404;53.974;-1.086;2023-03-18T09:30:40;100423.13;;;10.83;100.00
33265;BME280;31404;53.974;-1.086;2023-03-18T09:35:40;100416.10;;;10.93;100.00
33265;BME280;31404;53.974;-1.086;2023-03-18T09:50:43;100431.77;;;11.22;97.33
33265;BME280;31404;53.974;-1.086;2023-03-18T09:55:43;100424.77;;;13.21;87.98
33265;BME280;31404;53.974;-1.086;2023-03-18T10:00:39;100420.16;;;13.02;86.89
33265;BME280;31404;53.974;-1.086;2023-03-18T10:10:43;100436.31;;;10.49;100.00
33265;BME280;31404;53.974;-1.086;2023-03-18T10:15:40;100432.30;;;11.62;95.24
33265;BME280;31404;53.974;-1.086;2023-03-18T10:25:42;100436.52;;;12.65;91.81
33265;BME280;31404;53.974;-1.086;2023-03-18T10:35:38;100439.24;;;11.72;95.32
33265;BME280;31404;53.974;-1.086;2023-03-18T10:40:40;100439.09;;;12.08;92.60
33265;BME280;31404;53.974;-1.086;2023-03-18T10:45:38;100444.16;;;13.34;86.14
33265;BME280;31404;53.974;-1.086;2023-03-18T10:50:42;100447.88;;;11.80;89.96
33265;BME280;31404;53.974;-1.086;2023-03-18T11:00:40;100445.00;;;13.65;82.33
33265;BME280;31404;53.974;-1.086;2023-03-18T11:05:40;100445.72;;;13.92;81.46
33265;BME280;31404;53.974;-1.086;2023-03-18T11:20:41;100455.53;;;12.08;91.96
33265;BME280;31404;53.974;-1.086;2023-03-18T11:40:40;100444.07;;;12.82;92.06
33265;BME280;31404;53.974;-1.086;2023-03-18T11:45:47;100442.02;;;12.91;88.91
33265;BME280;31404;53.974;-1.086;2023-03-18T12:10:38;100435.48;;;13.86;81.27
33265;BME280;31404;53.974;-1.086;2023-03-18T12:45:43;100429.93;;;12.44;88.07
33265;BME280;31404;53.974;-1.086;2023-03-18T12:50:38;100424.56;;;12.97;85.01
33265;BME280;31404;53.974;-1.086;2023-03-18T13:00:40;100422.94;;;13.62;82.43
33265;BME280;31404;53.974;-1.086;2023-03-18T13:10:40;100427.43;;;14.89;76.73
33265;BME280;31404;53.974;-1.086;2023-03-18T13:15:40;100425.66;;;13.95;79.22
33265;BME280;31404;53.974;-1.086;2023-03-18T13:20:35;100423.11;;;14.62;78.59
33265;BME280;31404;53.974;-1.086;2023-03-18T13:25:38;100420.58;;;14.25;78.25
33265;BME280;31404;53.974;-1.086;2023-03-18T13:45:44;100397.56;;;16.43;70.55
33265;BME280;31404;53.974;-1.086;2023-03-18T13:50:36;100403.38;;;15.29;73.68
33265;BME280;31404;53.974;-1.086;2023-03-18T13:55:41;100404.88;;;14.55;74.06
33265;BME280;31404;53.974;-1.086;2023-03-18T14:00:40;100403.76;;;15.16;71.98
33265;BME280;31404;53.974;-1.086;2023-03-18T14:05:39;100399.04;;;14.77;73.23
33265;BME280;31404;53.974;-1.086;2023-03-18T14:10:40;100395.04;;;14.64;73.71
33265;BME280;31404;53.974;-1.086;2023-03-18T14:20:40;100382.45;;;15.60;73.20
33265;BME280;31404;53.974;-1.086;2023-03-18T14:25:40;100382.47;;;14.77;76.75
33265;BME280;31404;53.974;-1.086;2023-03-18T14:40:41;100379.44;;;15.75;72.90
33265;BME280;31404;53.974;-1.086;2023-03-18T14:45:37;100390.83;;;14.03;78.93
33265;BME280;31404;53.974;-1.086;2023-03-18T14:55:39;100384.88;;;13.22;88.49
33265;BME280;31404;53.974;-1.086;2023-03-18T15:00:41;100384.41;;;13.31;88.51
33265;BME280;31404;53.974;-1.086;2023-03-18T15:05:40;100395.96;;;11.06;98.21
33265;BME280;31404;53.974;-1.086;2023-03-18T15:10:39;100387.75;;;12.07;95.15
33265;BME280;31404;53.974;-1.086;2023-03-18T15:15:35;100390.50;;;12.52;95.99
33265;BME280;31404;53.974;-1.086;2023-03-18T15:20:41;100393.82;;;12.51;98.68
33265;BME280;31404;53.974;-1.086;2023-03-18T15:25:42;100390.91;;;11.86;100.00
33265;BME280;31404;53.974;-1.086;2023-03-18T15:30:38;100384.96;;;11.87;100.00
33265;BME280;31404;53.974;-1.086;2023-03-18T15:35:39;100376.52;;;12.11;100.00
33265;BME280;31404;53.974;-1.086;2023-03-18T16:00:39;100380.45;;;13.76;81.29
33265;BME280;31404;53.974;-1.086;2023-03-18T16:05:38;100391.10;;;14.10;80.87
33265;BME280;31404;53.974;-1.086;2023-03-18T16:10:40;100398.81;;;13.49;82.82
33265;BME280;31404;53.974;-1.086;2023-03-18T16:15:39;100403.70;;;12.96;84.18
33265;BME280;31404;53.974;-1.086;2023-03-18T16:20:39;100411.96;;;13.04;82.86
33265;BME280;31404;53.974;-1.086;2023-03-18T16:25:42;100412.43;;;12.50;82.96
33265;BME280;31404;53.974;-1.086;2023-03-18T16:30:38;100409.67;;;11.94;80.41
33265;BME280;31404;53.974;-1.086;2023-03-18T16:35:37;100413.38;;;11.50;84.83
33265;BME280;31404;53.974;-1.086;2023-03-18T16:40:39;100411.75;;;11.82;83.33
33265;BME280;31404;53.974;-1.086;2023-03-18T16:45:34;100413.17;;;12.57;82.31
33265;BME280;31404;53.974;-1.086;2023-03-18T16:50:40;100410.77;;;12.64;83.94
33265;BME280;31404;53.974;-1.086;2023-03-18T16:55:40;100408.94;;;12.99;82.69
33265;BME280;31404;53.974;-1.086;2023-03-18T17:00:39;100418.75;;;12.62;85.86
33265;BME280;31404;53.974;-1.086;2023-03-18T17:05:35;100411.24;;;13.46;79.58
33265;BME280;31404;53.974;-1.086;2023-03-18T17:10:40;100418.41;;;14.12;78.58
33265;BME280;31404;53.974;-1.086;2023-03-18T17:15:36;100423.18;;;15.34;75.40
33265;BME280;31404;53.974;-1.086;2023-03-18T17:20:39;100426.46;;;13.36;82.61
33265;BME280;31404;53.974;-1.086;2023-03-18T17:25:35;100428.50;;;13.12;83.24
33265;BME280;31404;53.974;-1.086;2023-03-18T17:30:37;100436.35;;;11.69;89.62
33265;BME280;31404;53.974;-1.086;2023-03-18T17:35:39;100445.41;;;12.87;84.26
33265;BME280;31404;53.974;-1.086;2023-03-18T17:40:40;100444.76;;;13.90;81.12
33265;BME280;31404;53.974;-1.086;2023-03-18T17:45:38;100447.17;;;14.41;78.40
33265;BME280;31404;53.974;-1.086;2023-03-18T17:50:34;100448.08;;;14.11;78.25
33265;BME280;31404;53.974;-1.086;2023-03-18T17:55:39;100454.27;;;13.90;79.43
33265;BME280;31404;53.974;-1.086;2023-03-18T18:00:38;100459.82;;;13.75;80.77
33265;BME280;31404;53.974;-1.086;2023-03-18T18:05:40;100465.41;;;14.12;79.16
33265;BME280;31404;53.974;-1.086;2023-03-18T18:10:40;100469.97;;;15.07;76.80
33265;BME280;31404;53.974;-1.086;2023-03-18T18:15:35;100470.19;;;14.54;77.34
33265;BME280;31404;53.974;-1.086;2023-03-18T18:20:39;100477.81;;;14.91;76.81
33265;BME280;31404;53.974;-1.086;2023-03-18T18:25:39;100478.31;;;14.52;78.49
33265;BME280;31404;53.974;-1.086;2023-03-18T18:30:38;100484.83;;;14.64;77.95
33265;BME280;31404;53.974;-1.086;2023-03-18T18:35:38;100488.99;;;13.97;81.15
33265;BME280;31404;53.974;-1.086;2023-03-18T18:40:39;100490.76;;;14.09;83.25
33265;BME280;31404;53.974;-1.086;2023-03-18T18:45:35;100493.76;;;13.96;83.61
33265;BME280;31404;53.974;-1.086;2023-03-18T18:50:40;100499.09;;;14.46;82.62
33265;BME280;31404;53.974;-1.086;2023-03-18T18:55:38;100496.98;;;14.67;81.65
33265;BME280;31404;53.974;-1.086;2023-03-18T19:00:39;100498.49;;;14.31;83.76
33265;BME280;31404;53.974;-1.086;2023-03-18T19:05:39;100499.40;;;14.30;83.71
33265;BME280;31404;53.974;-1.086;2023-03-18T19:10:39;100503.35;;;14.14;83.36
33265;BME280;31404;53.974;-1.086;2023-03-18T19:15:35;100503.89;;;13.10;87.47
33265;BME280;31404;53.974;-1.086;2023-03-18T19:20:34;100500.49;;;14.66;81.13
33265;BME280;31404;53.974;-1.086;2023-03-18T19:25:39;100506.12;;;13.58;84.11
33265;BME280;31404;53.974;-1.086;2023-03-18T19:30:35;100510.93;;;13.60;84.53
33265;BME280;31404;53.974;-1.086;2023-03-18T19:35:40;100511.41;;;12.27;90.64
33265;BME280;31404;53.974;-1.086;2023-03-18T19:40:39;100526.33;;;11.45;94.90
33265;BME280;31404;53.974;-1.086;2023-03-18T19:45:38;100516.63;;;12.02;89.90
33265;BME280;31404;53.974;-1.086;2023-03-18T19:50:38;100525.43;;;11.69;89.67
33265;BME280;31404;53.974;-1.086;2023-03-18T19:55:39;100528.93;;;11.08;91.51
33265;BME280;31404;53.974;-1.086;2023-03-18T20:00:39;100529.40;;;10.40;94.06
33265;BME280;31404;53.974;-1.086;2023-03-18T20:05:34;100533.81;;;10.87;92.41
33265;BME280;31404;53.974;-1.086;2023-03-18T20:10:39;100537.80;;;9.74;96.32
33265;BME280;31404;53.974;-1.086;2023-03-18T20:15:38;100542.49;;;10.30;92.30
33265;BME280;31404;53.974;-1.086;2023-03-18T20:20:39;100551.40;;;10.27;92.53
33265;BME280;31404;53.974;-1.086;2023-03-18T20:25:36;100556.49;;;9.83;93.33
33265;BME280;31404;53.974;-1.086;2023-03-18T20:30:39;100552.52;;;10.85;87.33
33265;BME280;31404;53.974;-1.086;2023-03-18T20:35:36;100562.59;;;11.13;85.92
33265;BME280;31404;53.974;-1.086;2023-03-18T20:40:39;100568.18;;;10.68;87.35
33265;BME280;31404;53.974;-1.086;2023-03-18T20:45:38;100566.45;;;9.93;91.51
33265;BME280;31404;53.974;-1.086;2023-03-18T20:50:39;100564.17;;;10.50;89.13
33265;BME280;31404;53.974;-1.086;2023-03-18T20:55:38;100562.20;;;11.85;84.19
33265;BME280;31404;53.974;-1.086;2023-03-18T21:00:35;100568.34;;;11.52;83.91
33265;BME280;31404;53.974;-1.086;2023-03-18T21:05:36;100566.50;;;12.50;79.43
33265;BME280;31404;53.974;-1.086;2023-03-18T21:10:39;100582.07;;;11.30;85.45
33265;BME280;31404;53.974;-1.086;2023-03-18T21:15:38;100580.03;;;10.21;89.90
33265;BME280;31404;53.974;-1.086;2023-03-18T21:20:38;100577.17;;;12.12;82.70
33265;BME280;31404;53.974;-1.086;2023-03-18T21:25:41;100584.36;;;12.10;82.89
33265;BME280;31404;53.974;-1.086;2023-03-18T21:30:34;100588.66;;;12.40;80.66
33265;BME280;31404;53.974;-1.086;2023-03-18T21:35:34;100603.06;;;11.62;83.01
33265;BME280;31404;53.974;-1.086;2023-03-18T21:40:38;100600.16;;;10.16;90.51
33265;BME280;31404;53.974;-1.086;2023-03-18T21:45:39;100600.25;;;9.99;94.61
33265;BME280;31404;53.974;-1.086;2023-03-18T21:50:39;100602.93;;;8.47;100.00
33265;BME280;31404;53.974;-1.086;2023-03-18T21:55:38;100607.43;;;7.12;100.00
33265;BME280;31404;53.974;-1.086;2023-03-18T22:00:39;100615.49;;;7.60;100.00
33265;BME280;31404;53.974;-1.086;2023-03-18T22:05:35;100617.42;;;7.60;100.00
33265;BME280;31404;53.974;-1.086;2023-03-18T22:10:38;100628.46;;;6.61;100.00
33265;BME280;31404;53.974;-1.086;2023-03-18T22:15:39;100625.79;;;6.49;100.00
33265;BME280;31404;53.974;-1.086;2023-03-18T22:20:40;100627.84;;;7.20;100.00
33265;BME280;31404;53.974;-1.086;2023-03-18T22:25:35;100630.61;;;8.24;100.00
33265;BME280;31404;53.974;-1.086;2023-03-18T22:30:39;100637.14;;;6.11;100.00
33265;BME280;31404;53.974;-1.086;2023-03-18T22:35:40;100642.67;;;7.09;100.00
33265;BME280;31404;53.974;-1.086;2023-03-18T22:40:40;100647.15;;;5.59;100.00
33265;BME280;31404;53.974;-1.086;2023-03-18T22:45:35;100641.30;;;6.65;100.00
33265;BME280;31404;53.974;-1.086;2023-03-18T22:50:35;100653.13;;;6.41;100.00
33265;BME280;31404;53.974;-1.086;2023-03-18T22:55:40;100661.26;;;6.49;100.00
33265;BME280;31404;53.974;-1.086;2023-03-18T23:00:41;100677.10;;;5.79;100.00
33265;BME280;31404;53.974;-1.086;2023-03-18T23:05:38;100692.87;;;5.10;100.00
33265;BME280;31404;53.974;-1.086;2023-03-18T23:10:38;100712.70;;;4.58;100.00
33265;BME280;31404;53.974;-1.086;2023-03-18T23:15:39;100727.90;;;3.88;100.00
33265;BME280;31404;53.974;-1.086;2023-03-18T23:20:39;100730.66;;;3.24;100.00
33265;BME280;31404;53.974;-1.086;2023-03-18T23:25:39;100737.04;;;5.06;100.00
33265;BME280;31404;53.974;-1.086;2023-03-18T23:30:41;100748.08;;;5.18;100.00
33265;BME280;31404;53.974;-1.086;2023-03-18T23:35:39;100752.48;;;5.40;100.00
33265;BME280;31404;53.974;-1.086;2023-03-18T23:40:38;100759.73;;;4.07;100.00
33265;BME280;31404;53.974;-1.086;2023-03-18T23:45:41;100774.81;;;3.34;100.00
33265;BME280;31404;53.974;-1.086;2023-03-18T23:50:39;100786.06;;;3.04;100.00
33265;BME280;31404;53.974;-1.086;2023-03-18T23:55:38;100782.29;;;4.09;100.00
